sensor_id;sensor_type;location;lat;lon;timestamp;P1;durP1;ratioP1;P2;durP2;ratioP2
33287;SDS011;19657;50.452;30.372;2024-02-16T00:00:38;19.40;;;9.80;;
33287;SDS011;19657;50.452;30.372;2024-02-16T00:03:25;17.60;;;9.60;;
33287;SDS011;19657;50.452;30.372;2024-02-16T00:06:13;20.00;;;9.20;;
33287;SDS011;19657;50.452;30.372;2024-02-16T00:09:00;15.00;;;8.70;;
33287;SDS011;19657;50.452;30.372;2024-02-16T00:11:47;15.30;;;8.30;;
33287;SDS011;19657;50.452;30.372;2024-02-16T00:14:37;29.50;;;8.70;;
33287;SDS011;19657;50.452;30.372;2024-02-16T00:17:23;14.30;;;7.00;;
33287;SDS011;19657;50.452;30.372;2024-02-16T00:20:13;18.40;;;9.30;;
33287;SDS011;19657;50.452;30.372;2024-02-16T00:23:00;18.30;;;9.40;;
33287;SDS011;19657;50.452;30.372;2024-02-16T00:25:46;17.20;;;8.60;;
33287;SDS011;19657;50.452;30.372;2024-02-16T00:28:34;16.90;;;8.90;;
33287;SDS011;19657;50.452;30.372;2024-02-16T00:31:20;16.90;;;8.70;;
33287;SDS011;19657;50.452;30.372;2024-02-16T00:34:07;25.00;;;8.90;;
33287;SDS011;19657;50.452;30.372;2024-02-16T00:36:54;27.40;;;9.70;;
33287;SDS011;19657;50.452;30.372;2024-02-16T00:39:41;18.40;;;8.50;;
33287;SDS011;19657;50.452;30.372;2024-02-16T00:42:27;19.90;;;9.50;;
33287;SDS011;19657;50.452;30.372;2024-02-16T00:45:17;17.70;;;9.30;;
33287;SDS011;19657;50.452;30.372;2024-02-16T00:48:04;15.20;;;9.10;;
33287;SDS011;19657;50.452;30.372;2024-02-16T00:50:52;21.30;;;10.40;;
33287;SDS011;19657;50.452;30.372;2024-02-16T00:53:39;23.80;;;12.90;;
33287;SDS011;19657;50.452;30.372;2024-02-16T00:56:26;19.20;;;10.20;;
33287;SDS011;19657;50.452;30.372;2024-02-16T00:59:12;25.60;;;10.60;;
33287;SDS011;19657;50.452;30.372;2024-02-16T01:01:59;21.50;;;11.20;;
33287;SDS011;19657;50.452;30.372;2024-02-16T01:04:46;16.30;;;9.00;;
33287;SDS011;19657;50.452;30.372;2024-02-16T01:07:33;15.10;;;8.10;;
33287;SDS011;19657;50.452;30.372;2024-02-16T01:10:20;13.80;;;7.90;;
33287;SDS011;19657;50.452;30.372;2024-02-16T01:13:06;14.70;;;8.10;;
33287;SDS011;19657;50.452;30.372;2024-02-16T01:15:53;16.30;;;7.70;;
33287;SDS011;19657;50.452;30.372;2024-02-16T01:18:40;14.20;;;7.90;;
33287;SDS011;19657;50.452;30.372;2024-02-16T01:21:28;18.80;;;7.70;;
33287;SDS011;19657;50.452;30.372;2024-02-16T01:24:15;18.90;;;9.10;;
33287;SDS011;19657;50.452;30.372;2024-02-16T01:27:01;18.40;;;9.40;;
33287;SDS011;19657;50.452;30.372;2024-02-16T01:29:48;16.10;;;8.50;;
33287;SDS011;19657;50.452;30.372;2024-02-16T01:32:35;16.60;;;8.40;;
33287;SDS011;19657;50.452;30.372;2024-02-16T01:35:21;16.10;;;8.80;;
33287;SDS011;19657;50.452;30.372;2024-02-16T01:38:25;16.10;;;8.40;;
33287;SDS011;19657;50.452;30.372;2024-02-16T01:41:12;15.20;;;8.40;;
33287;SDS011;19657;50.452;30.372;2024-02-16T01:44:01;26.40;;;8.30;;
33287;SDS011;19657;50.452;30.372;2024-02-16T01:46:48;17.10;;;8.30;;
33287;SDS011;19657;50.452;30.372;2024-02-16T01:49:34;17.20;;;8.50;;
33287;SDS011;19657;50.452;30.372;2024-02-16T01:52:21;19.30;;;8.40;;
33287;SDS011;19657;50.452;30.372;2024-02-16T01:55:08;16.10;;;9.40;;
33287;SDS011;19657;50.452;30.372;2024-02-16T01:57:56;16.30;;;8.20;;
33287;SDS011;19657;50.452;30.372;2024-02-16T02:00:45;18.20;;;9.20;;
33287;SDS011;19657;50.452;30.372;2024-02-16T02:03:31;18.10;;;8.80;;
33287;SDS011;19657;50.452;30.372;2024-02-16T02:06:18;24.30;;;9.70;;
33287;SDS011;19657;50.452;30.372;2024-02-16T02:09:05;15.80;;;8.60;;
33287;SDS011;19657;50.452;30.372;2024-02-16T02:11:51;17.40;;;9.20;;
33287;SDS011;19657;50.452;30.372;2024-02-16T02:14:40;19.90;;;10.80;;
33287;SDS011;19657;50.452;30.372;2024-02-16T02:17:27;27.50;;;13.60;;
33287;SDS011;19657;50.452;30.372;2024-02-16T02:20:14;30.40;;;13.20;;
33287;SDS011;19657;50.452;30.372;2024-02-16T02:23:00;34.70;;;13.40;;
33287;SDS011;19657;50.452;30.372;2024-02-16T02:25:46;24.70;;;12.20;;
33287;SDS011;19657;50.452;30.372;2024-02-16T02:28:34;25.00;;;10.80;;
33287;SDS011;19657;50.452;30.372;2024-02-16T02:31:21;26.00;;;11.90;;
33287;SDS011;19657;50.452;30.372;2024-02-16T02:34:07;20.40;;;11.00;;
33287;SDS011;19657;50.452;30.372;2024-02-16T02:36:54;21.80;;;11.60;;
33287;SDS011;19657;50.452;30.372;2024-02-16T02:39:39;22.20;;;10.50;;
33287;SDS011;19657;50.452;30.372;2024-02-16T02:42:26;20.00;;;9.70;;
33287;SDS011;19657;50.452;30.372;2024-02-16T02:45:13;24.10;;;10.80;;
33287;SDS011;19657;50.452;30.372;2024-02-16T02:48:00;27.10;;;11.10;;
33287;SDS011;19657;50.452;30.372;2024-02-16T02:50:46;25.70;;;10.80;;
33287;SDS011;19657;50.452;30.372;2024-02-16T02:53:32;26.20;;;11.20;;
33287;SDS011;19657;50.452;30.372;2024-02-16T02:56:18;23.10;;;10.40;;
33287;SDS011;19657;50.452;30.372;2024-02-16T02:59:04;22.40;;;10.70;;
33287;SDS011;19657;50.452;30.372;2024-02-16T03:01:52;22.70;;;10.20;;
33287;SDS011;19657;50.452;30.372;2024-02-16T03:04:38;24.90;;;10.40;;
33287;SDS011;19657;50.452;30.372;2024-02-16T03:07:24;45.10;;;11.50;;
33287;SDS011;19657;50.452;30.372;2024-02-16T03:10:11;19.20;;;9.80;;
33287;SDS011;19657;50.452;30.372;2024-02-16T03:12:57;20.80;;;10.00;;
33287;SDS011;19657;50.452;30.372;2024-02-16T03:15:43;18.90;;;10.30;;
33287;SDS011;19657;50.452;30.372;2024-02-16T03:18:30;20.30;;;10.30;;
33287;SDS011;19657;50.452;30.372;2024-02-16T03:21:17;24.00;;;10.20;;
33287;SDS011;19657;50.452;30.372;2024-02-16T03:24:04;28.90;;;10.60;;
33287;SDS011;19657;50.452;30.372;2024-02-16T03:26:50;25.60;;;8.90;;
33287;SDS011;19657;50.452;30.372;2024-02-16T03:29:36;22.10;;;10.40;;
33287;SDS011;19657;50.452;30.372;2024-02-16T03:32:22;14.30;;;9.10;;
33287;SDS011;19657;50.452;30.372;2024-02-16T03:35:08;19.40;;;9.80;;
33287;SDS011;19657;50.452;30.372;2024-02-16T03:37:55;19.70;;;10.10;;
33287;SDS011;19657;50.452;30.372;2024-02-16T03:40:41;19.00;;;9.20;;
33287;SDS011;19657;50.452;30.372;2024-02-16T03:43:28;23.90;;;9.00;;
33287;SDS011;19657;50.452;30.372;2024-02-16T03:46:14;18.50;;;8.60;;
33287;SDS011;19657;50.452;30.372;2024-02-16T03:49:01;18.30;;;8.80;;
33287;SDS011;19657;50.452;30.372;2024-02-16T03:51:47;23.00;;;9.40;;
33287;SDS011;19657;50.452;30.372;2024-02-16T03:54:33;17.70;;;10.00;;
33287;SDS011;19657;50.452;30.372;2024-02-16T03:57:20;17.00;;;8.20;;
33287;SDS011;19657;50.452;30.372;2024-02-16T04:00:07;15.40;;;8.40;;
33287;SDS011;19657;50.452;30.372;2024-02-16T04:02:58;21.00;;;10.20;;
33287;SDS011;19657;50.452;30.372;2024-02-16T04:05:45;25.30;;;9.20;;
33287;SDS011;19657;50.452;30.372;2024-02-16T04:08:31;15.50;;;7.20;;
33287;SDS011;19657;50.452;30.372;2024-02-16T04:11:17;19.30;;;8.60;;
33287;SDS011;19657;50.452;30.372;2024-02-16T04:14:03;14.00;;;8.20;;
33287;SDS011;19657;50.452;30.372;2024-02-16T04:16:49;15.20;;;7.60;;
33287;SDS011;19657;50.452;30.372;2024-02-16T04:19:36;15.10;;;7.80;;
33287;SDS011;19657;50.452;30.372;2024-02-16T04:22:23;21.00;;;8.60;;
33287;SDS011;19657;50.452;30.372;2024-02-16T04:25:09;27.10;;;8.90;;
33287;SDS011;19657;50.452;30.372;2024-02-16T04:27:56;23.70;;;10.70;;
33287;SDS011;19657;50.452;30.372;2024-02-16T04:30:42;21.10;;;10.00;;
33287;SDS011;19657;50.452;30.372;2024-02-16T04:33:29;19.90;;;9.20;;
33287;SDS011;19657;50.452;30.372;2024-02-16T04:36:15;18.50;;;9.90;;
33287;SDS011;19657;50.452;30.372;2024-02-16T04:39:02;24.40;;;8.70;;
33287;SDS011;19657;50.452;30.372;2024-02-16T04:41:49;23.50;;;9.10;;
33287;SDS011;19657;50.452;30.372;2024-02-16T04:44:38;22.80;;;8.90;;
33287;SDS011;19657;50.452;30.372;2024-02-16T04:47:25;17.50;;;9.30;;
33287;SDS011;19657;50.452;30.372;2024-02-16T04:50:12;19.50;;;8.80;;
33287;SDS011;19657;50.452;30.372;2024-02-16T04:52:59;18.10;;;9.30;;
33287;SDS011;19657;50.452;30.372;2024-02-16T04:55:49;18.00;;;9.00;;
33287;SDS011;19657;50.452;30.372;2024-02-16T04:58:35;23.00;;;9.20;;
33287;SDS011;19657;50.452;30.372;2024-02-16T05:01:21;26.30;;;10.00;;
33287;SDS011;19657;50.452;30.372;2024-02-16T05:04:07;15.90;;;8.30;;
33287;SDS011;19657;50.452;30.372;2024-02-16T05:06:54;20.50;;;10.50;;
33287;SDS011;19657;50.452;30.372;2024-02-16T05:09:44;15.70;;;9.20;;
33287;SDS011;19657;50.452;30.372;2024-02-16T05:12:30;27.50;;;10.10;;
33287;SDS011;19657;50.452;30.372;2024-02-16T05:15:17;19.60;;;9.60;;
33287;SDS011;19657;50.452;30.372;2024-02-16T05:18:03;28.50;;;11.30;;
33287;SDS011;19657;50.452;30.372;2024-02-16T05:20:50;35.70;;;10.60;;
33287;SDS011;19657;50.452;30.372;2024-02-16T05:23:36;21.50;;;10.30;;
33287;SDS011;19657;50.452;30.372;2024-02-16T05:26:22;18.20;;;9.80;;
33287;SDS011;19657;50.452;30.372;2024-02-16T05:29:09;20.30;;;10.60;;
33287;SDS011;19657;50.452;30.372;2024-02-16T05:31:55;22.90;;;10.50;;
33287;SDS011;19657;50.452;30.372;2024-02-16T05:34:41;21.50;;;10.60;;
33287;SDS011;19657;50.452;30.372;2024-02-16T05:37:28;32.70;;;11.00;;
33287;SDS011;19657;50.452;30.372;2024-02-16T05:40:14;30.60;;;12.50;;
33287;SDS011;19657;50.452;30.372;2024-02-16T05:43:13;22.90;;;11.00;;
33287;SDS011;19657;50.452;30.372;2024-02-16T05:45:59;26.80;;;12.10;;
33287;SDS011;19657;50.452;30.372;2024-02-16T05:48:45;21.60;;;11.90;;
33287;SDS011;19657;50.452;30.372;2024-02-16T05:51:35;30.70;;;12.60;;
33287;SDS011;19657;50.452;30.372;2024-02-16T05:54:28;28.00;;;12.70;;
33287;SDS011;19657;50.452;30.372;2024-02-16T05:57:15;37.20;;;14.10;;
33287;SDS011;19657;50.452;30.372;2024-02-16T06:00:06;31.70;;;14.00;;
33287;SDS011;19657;50.452;30.372;2024-02-16T06:02:54;24.10;;;12.70;;
33287;SDS011;19657;50.452;30.372;2024-02-16T06:05:40;25.90;;;14.90;;
33287;SDS011;19657;50.452;30.372;2024-02-16T06:08:26;29.00;;;13.70;;
33287;SDS011;19657;50.452;30.372;2024-02-16T06:11:15;20.20;;;12.10;;
33287;SDS011;19657;50.452;30.372;2024-02-16T06:14:02;31.90;;;14.50;;
33287;SDS011;19657;50.452;30.372;2024-02-16T06:16:49;30.20;;;14.50;;
33287;SDS011;19657;50.452;30.372;2024-02-16T06:19:35;27.50;;;14.10;;
33287;SDS011;19657;50.452;30.372;2024-02-16T06:22:22;32.00;;;14.80;;
33287;SDS011;19657;50.452;30.372;2024-02-16T06:25:08;33.40;;;14.60;;
33287;SDS011;19657;50.452;30.372;2024-02-16T06:27:55;34.10;;;16.20;;
33287;SDS011;19657;50.452;30.372;2024-02-16T06:30:41;32.50;;;16.80;;
33287;SDS011;19657;50.452;30.372;2024-02-16T06:33:27;38.60;;;15.70;;
33287;SDS011;19657;50.452;30.372;2024-02-16T06:36:13;32.00;;;16.00;;
33287;SDS011;19657;50.452;30.372;2024-02-16T06:39:00;35.40;;;18.20;;
33287;SDS011;19657;50.452;30.372;2024-02-16T06:41:46;27.70;;;16.80;;
33287;SDS011;19657;50.452;30.372;2024-02-16T06:44:32;28.30;;;16.40;;
33287;SDS011;19657;50.452;30.372;2024-02-16T06:47:19;45.70;;;18.80;;
33287;SDS011;19657;50.452;30.372;2024-02-16T06:50:06;47.40;;;22.90;;
33287;SDS011;19657;50.452;30.372;2024-02-16T06:52:53;42.30;;;22.10;;
33287;SDS011;19657;50.452;30.372;2024-02-16T06:55:41;38.80;;;20.60;;
33287;SDS011;19657;50.452;30.372;2024-02-16T06:58:27;41.00;;;22.70;;
33287;SDS011;19657;50.452;30.372;2024-02-16T07:01:14;44.20;;;23.30;;
33287;SDS011;19657;50.452;30.372;2024-02-16T07:04:00;43.40;;;22.80;;
33287;SDS011;19657;50.452;30.372;2024-02-16T07:06:48;48.70;;;24.60;;
33287;SDS011;19657;50.452;30.372;2024-02-16T07:09:34;44.90;;;24.40;;
33287;SDS011;19657;50.452;30.372;2024-02-16T07:12:22;50.30;;;27.10;;
33287;SDS011;19657;50.452;30.372;2024-02-16T07:15:09;52.70;;;26.10;;
33287;SDS011;19657;50.452;30.372;2024-02-16T07:17:55;47.90;;;26.40;;
33287;SDS011;19657;50.452;30.372;2024-02-16T07:20:41;47.30;;;24.90;;
33287;SDS011;19657;50.452;30.372;2024-02-16T07:23:27;50.40;;;24.30;;
33287;SDS011;19657;50.452;30.372;2024-02-16T07:26:14;46.90;;;24.80;;
33287;SDS011;19657;50.452;30.372;2024-02-16T07:29:03;47.30;;;25.00;;
33287;SDS011;19657;50.452;30.372;2024-02-16T07:31:49;55.20;;;29.80;;
33287;SDS011;19657;50.452;30.372;2024-02-16T07:34:37;47.70;;;27.50;;
33287;SDS011;19657;50.452;30.372;2024-02-16T07:37:24;48.10;;;29.10;;
33287;SDS011;19657;50.452;30.372;2024-02-16T07:40:10;48.00;;;27.80;;
33287;SDS011;19657;50.452;30.372;2024-02-16T07:42:57;42.80;;;25.00;;
33287;SDS011;19657;50.452;30.372;2024-02-16T07:45:43;41.80;;;25.10;;
33287;SDS011;19657;50.452;30.372;2024-02-16T07:48:30;44.00;;;25.30;;
33287;SDS011;19657;50.452;30.372;2024-02-16T07:51:17;42.90;;;25.00;;
33287;SDS011;19657;50.452;30.372;2024-02-16T07:54:03;41.10;;;24.00;;
33287;SDS011;19657;50.452;30.372;2024-02-16T07:56:50;35.20;;;23.00;;
33287;SDS011;19657;50.452;30.372;2024-02-16T07:59:37;38.20;;;23.10;;
33287;SDS011;19657;50.452;30.372;2024-02-16T08:02:23;34.30;;;20.60;;
33287;SDS011;19657;50.452;30.372;2024-02-16T08:05:13;37.10;;;21.20;;
33287;SDS011;19657;50.452;30.372;2024-02-16T08:07:59;39.40;;;24.50;;
33287;SDS011;19657;50.452;30.372;2024-02-16T08:10:46;39.10;;;21.10;;
33287;SDS011;19657;50.452;30.372;2024-02-16T08:13:32;34.70;;;21.30;;
33287;SDS011;19657;50.452;30.372;2024-02-16T08:16:18;31.40;;;19.60;;
33287;SDS011;19657;50.452;30.372;2024-02-16T08:19:04;32.60;;;21.80;;
33287;SDS011;19657;50.452;30.372;2024-02-16T08:21:50;40.70;;;23.10;;
33287;SDS011;19657;50.452;30.372;2024-02-16T08:24:37;34.70;;;20.70;;
33287;SDS011;19657;50.452;30.372;2024-02-16T08:27:23;37.30;;;23.70;;
33287;SDS011;19657;50.452;30.372;2024-02-16T08:30:10;46.20;;;26.80;;
33287;SDS011;19657;50.452;30.372;2024-02-16T08:32:57;55.00;;;28.60;;
33287;SDS011;19657;50.452;30.372;2024-02-16T08:35:44;56.20;;;28.90;;
33287;SDS011;19657;50.452;30.372;2024-02-16T08:38:30;55.80;;;30.70;;
33287;SDS011;19657;50.452;30.372;2024-02-16T08:41:16;59.90;;;30.10;;
33287;SDS011;19657;50.452;30.372;2024-02-16T08:44:03;51.20;;;27.50;;
33287;SDS011;19657;50.452;30.372;2024-02-16T08:46:50;43.40;;;24.40;;
33287;SDS011;19657;50.452;30.372;2024-02-16T08:49:37;42.00;;;23.40;;
33287;SDS011;19657;50.452;30.372;2024-02-16T08:52:25;46.10;;;24.60;;
33287;SDS011;19657;50.452;30.372;2024-02-16T08:55:12;50.50;;;27.00;;
33287;SDS011;19657;50.452;30.372;2024-02-16T08:57:59;45.60;;;23.30;;
33287;SDS011;19657;50.452;30.372;2024-02-16T09:00:45;50.60;;;26.60;;
33287;SDS011;19657;50.452;30.372;2024-02-16T09:03:32;51.30;;;27.90;;
33287;SDS011;19657;50.452;30.372;2024-02-16T09:06:22;48.90;;;26.70;;
33287;SDS011;19657;50.452;30.372;2024-02-16T09:09:09;52.20;;;26.10;;
33287;SDS011;19657;50.452;30.372;2024-02-16T09:11:56;54.00;;;28.00;;
33287;SDS011;19657;50.452;30.372;2024-02-16T09:14:43;41.60;;;24.10;;
33287;SDS011;19657;50.452;30.372;2024-02-16T09:17:29;42.60;;;23.30;;
33287;SDS011;19657;50.452;30.372;2024-02-16T09:20:16;37.60;;;22.00;;
33287;SDS011;19657;50.452;30.372;2024-02-16T09:23:08;44.40;;;26.10;;
33287;SDS011;19657;50.452;30.372;2024-02-16T09:25:56;44.90;;;24.70;;
33287;SDS011;19657;50.452;30.372;2024-02-16T09:28:42;41.30;;;23.10;;
33287;SDS011;19657;50.452;30.372;2024-02-16T09:31:28;39.00;;;20.90;;
33287;SDS011;19657;50.452;30.372;2024-02-16T09:34:14;38.20;;;21.90;;
33287;SDS011;19657;50.452;30.372;2024-02-16T09:37:01;28.60;;;17.10;;
33287;SDS011;19657;50.452;30.372;2024-02-16T09:39:49;40.50;;;23.00;;
33287;SDS011;19657;50.452;30.372;2024-02-16T09:42:37;37.40;;;22.10;;
33287;SDS011;19657;50.452;30.372;2024-02-16T09:45:24;38.30;;;21.50;;
33287;SDS011;19657;50.452;30.372;2024-02-16T09:48:11;38.50;;;21.80;;
33287;SDS011;19657;50.452;30.372;2024-02-16T09:50:59;43.00;;;23.50;;
33287;SDS011;19657;50.452;30.372;2024-02-16T09:53:50;39.30;;;22.80;;
33287;SDS011;19657;50.452;30.372;2024-02-16T09:56:44;38.90;;;22.40;;
33287;SDS011;19657;50.452;30.372;2024-02-16T09:59:32;32.30;;;19.70;;
33287;SDS011;19657;50.452;30.372;2024-02-16T10:02:19;31.80;;;20.00;;
33287;SDS011;19657;50.452;30.372;2024-02-16T10:05:09;31.80;;;18.40;;
33287;SDS011;19657;50.452;30.372;2024-02-16T10:08:12;41.10;;;22.80;;
33287;SDS011;19657;50.452;30.372;2024-02-16T10:11:03;40.10;;;23.30;;
33287;SDS011;19657;50.452;30.372;2024-02-16T10:13:54;42.20;;;23.00;;
33287;SDS011;19657;50.452;30.372;2024-02-16T10:16:45;47.90;;;27.30;;
33287;SDS011;19657;50.452;30.372;2024-02-16T10:19:33;47.90;;;26.50;;
33287;SDS011;19657;50.452;30.372;2024-02-16T10:22:29;50.40;;;25.40;;
33287;SDS011;19657;50.452;30.372;2024-02-16T10:25:15;41.70;;;23.90;;
33287;SDS011;19657;50.452;30.372;2024-02-16T10:28:05;47.20;;;27.20;;
33287;SDS011;19657;50.452;30.372;2024-02-16T10:30:59;44.50;;;25.20;;
33287;SDS011;19657;50.452;30.372;2024-02-16T10:33:51;41.70;;;25.20;;
33287;SDS011;19657;50.452;30.372;2024-02-16T10:36:39;47.90;;;27.60;;
33287;SDS011;19657;50.452;30.372;2024-02-16T10:39:28;47.20;;;27.40;;
33287;SDS011;19657;50.452;30.372;2024-02-16T10:42:16;43.40;;;25.10;;
33287;SDS011;19657;50.452;30.372;2024-02-16T10:45:06;43.80;;;24.60;;
33287;SDS011;19657;50.452;30.372;2024-02-16T10:47:53;45.90;;;25.10;;
33287;SDS011;19657;50.452;30.372;2024-02-16T10:50:40;48.20;;;25.80;;
33287;SDS011;19657;50.452;30.372;2024-02-16T10:53:27;44.50;;;26.00;;
33287;SDS011;19657;50.452;30.372;2024-02-16T10:56:16;46.30;;;26.50;;
33287;SDS011;19657;50.452;30.372;2024-02-16T10:59:02;47.30;;;26.40;;
33287;SDS011;19657;50.452;30.372;2024-02-16T11:01:58;53.90;;;27.40;;
33287;SDS011;19657;50.452;30.372;2024-02-16T11:04:46;41.90;;;25.70;;
33287;SDS011;19657;50.452;30.372;2024-02-16T11:07:35;50.50;;;26.90;;
33287;SDS011;19657;50.452;30.372;2024-02-16T11:10:22;48.40;;;28.00;;
33287;SDS011;19657;50.452;30.372;2024-02-16T11:13:08;46.70;;;29.00;;
33287;SDS011;19657;50.452;30.372;2024-02-16T11:15:58;47.00;;;28.20;;
33287;SDS011;19657;50.452;30.372;2024-02-16T11:18:49;54.30;;;30.50;;
33287;SDS011;19657;50.452;30.372;2024-02-16T11:21:37;52.50;;;31.30;;
33287;SDS011;19657;50.452;30.372;2024-02-16T11:24:29;57.80;;;32.80;;
33287;SDS011;19657;50.452;30.372;2024-02-16T11:27:17;51.90;;;32.70;;
33287;SDS011;19657;50.452;30.372;2024-02-16T11:30:11;56.40;;;33.80;;
33287;SDS011;19657;50.452;30.372;2024-02-16T11:32:58;58.40;;;34.10;;
33287;SDS011;19657;50.452;30.372;2024-02-16T11:35:58;56.10;;;33.30;;
33287;SDS011;19657;50.452;30.372;2024-02-16T11:38:46;65.40;;;35.30;;
33287;SDS011;19657;50.452;30.372;2024-02-16T11:41:32;58.00;;;33.80;;
33287;SDS011;19657;50.452;30.372;2024-02-16T11:44:19;57.40;;;33.90;;
33287;SDS011;19657;50.452;30.372;2024-02-16T11:47:06;62.40;;;33.90;;
33287;SDS011;19657;50.452;30.372;2024-02-16T11:50:07;64.60;;;37.30;;
33287;SDS011;19657;50.452;30.372;2024-02-16T11:52:57;69.20;;;39.90;;
33287;SDS011;19657;50.452;30.372;2024-02-16T11:55:47;68.10;;;39.70;;
33287;SDS011;19657;50.452;30.372;2024-02-16T11:58:34;64.00;;;37.20;;
33287;SDS011;19657;50.452;30.372;2024-02-16T12:01:23;63.00;;;34.20;;
33287;SDS011;19657;50.452;30.372;2024-02-16T12:04:18;64.80;;;35.80;;
33287;SDS011;19657;50.452;30.372;2024-02-16T12:07:08;59.20;;;34.10;;
33287;SDS011;19657;50.452;30.372;2024-02-16T12:09:58;65.00;;;32.40;;
33287;SDS011;19657;50.452;30.372;2024-02-16T12:12:47;61.20;;;34.00;;
33287;SDS011;19657;50.452;30.372;2024-02-16T12:15:34;63.90;;;34.70;;
33287;SDS011;19657;50.452;30.372;2024-02-16T12:21:07;64.20;;;35.50;;
33287;SDS011;19657;50.452;30.372;2024-02-16T12:23:55;67.60;;;38.20;;
33287;SDS011;19657;50.452;30.372;2024-02-16T12:26:42;65.70;;;39.00;;
33287;SDS011;19657;50.452;30.372;2024-02-16T12:29:28;72.40;;;40.50;;
33287;SDS011;19657;50.452;30.372;2024-02-16T12:32:15;74.90;;;40.20;;
33287;SDS011;19657;50.452;30.372;2024-02-16T12:35:05;69.30;;;40.10;;
33287;SDS011;19657;50.452;30.372;2024-02-16T12:37:52;67.70;;;37.80;;
33287;SDS011;19657;50.452;30.372;2024-02-16T12:40:38;66.50;;;37.10;;
33287;SDS011;19657;50.452;30.372;2024-02-16T12:43:25;69.80;;;38.70;;
33287;SDS011;19657;50.452;30.372;2024-02-16T12:46:11;68.40;;;37.30;;
33287;SDS011;19657;50.452;30.372;2024-02-16T12:48:57;66.90;;;37.20;;
33287;SDS011;19657;50.452;30.372;2024-02-16T12:51:44;70.70;;;39.60;;
33287;SDS011;19657;50.452;30.372;2024-02-16T12:54:32;60.20;;;37.20;;
33287;SDS011;19657;50.452;30.372;2024-02-16T12:57:20;66.30;;;39.00;;
33287;SDS011;19657;50.452;30.372;2024-02-16T13:00:07;63.70;;;38.30;;
33287;SDS011;19657;50.452;30.372;2024-02-16T13:02:54;61.50;;;37.70;;
33287;SDS011;19657;50.452;30.372;2024-02-16T13:05:40;70.70;;;40.30;;
33287;SDS011;19657;50.452;30.372;2024-02-16T13:08:29;70.30;;;39.70;;
33287;SDS011;19657;50.452;30.372;2024-02-16T13:11:16;67.70;;;38.30;;
33287;SDS011;19657;50.452;30.372;2024-02-16T13:14:03;67.90;;;40.60;;
33287;SDS011;19657;50.452;30.372;2024-02-16T13:16:49;61.70;;;34.80;;
33287;SDS011;19657;50.452;30.372;2024-02-16T13:19:35;59.70;;;36.60;;
33287;SDS011;19657;50.452;30.372;2024-02-16T13:26:04;64.50;;;38.10;;
33287;SDS011;19657;50.452;30.372;2024-02-16T13:33:46;64.50;;;35.40;;
33287;SDS011;19657;50.452;30.372;2024-02-16T13:36:32;63.00;;;33.10;;
33287;SDS011;19657;50.452;30.372;2024-02-16T13:39:18;55.50;;;33.60;;
33287;SDS011;19657;50.452;30.372;2024-02-16T13:42:05;66.10;;;37.90;;
33287;SDS011;19657;50.452;30.372;2024-02-16T13:45:09;62.20;;;34.20;;
33287;SDS011;19657;50.452;30.372;2024-02-16T13:47:57;64.20;;;37.40;;
33287;SDS011;19657;50.452;30.372;2024-02-16T13:50:45;66.80;;;38.00;;
33287;SDS011;19657;50.452;30.372;2024-02-16T13:53:32;65.40;;;37.00;;
33287;SDS011;19657;50.452;30.372;2024-02-16T13:56:18;64.30;;;37.60;;
33287;SDS011;19657;50.452;30.372;2024-02-16T13:59:05;66.90;;;37.80;;
33287;SDS011;19657;50.452;30.372;2024-02-16T14:01:54;66.20;;;38.10;;
33287;SDS011;19657;50.452;30.372;2024-02-16T14:04:41;61.20;;;35.10;;
33287;SDS011;19657;50.452;30.372;2024-02-16T14:07:28;63.80;;;35.00;;
33287;SDS011;19657;50.452;30.372;2024-02-16T14:10:20;57.80;;;32.30;;
33287;SDS011;19657;50.452;30.372;2024-02-16T14:13:07;54.90;;;32.20;;
33287;SDS011;19657;50.452;30.372;2024-02-16T14:15:53;58.40;;;32.80;;
33287;SDS011;19657;50.452;30.372;2024-02-16T14:18:40;60.00;;;33.80;;
33287;SDS011;19657;50.452;30.372;2024-02-16T14:21:26;64.80;;;34.90;;
33287;SDS011;19657;50.452;30.372;2024-02-16T14:24:16;53.50;;;31.80;;
33287;SDS011;19657;50.452;30.372;2024-02-16T14:27:04;52.40;;;31.00;;
33287;SDS011;19657;50.452;30.372;2024-02-16T14:29:51;53.10;;;31.50;;
33287;SDS011;19657;50.452;30.372;2024-02-16T14:32:37;51.70;;;31.70;;
33287;SDS011;19657;50.452;30.372;2024-02-16T14:35:23;51.10;;;30.70;;
33287;SDS011;19657;50.452;30.372;2024-02-16T14:38:10;50.50;;;29.30;;
33287;SDS011;19657;50.452;30.372;2024-02-16T14:40:58;54.20;;;32.20;;
33287;SDS011;19657;50.452;30.372;2024-02-16T14:43:49;56.20;;;29.60;;
33287;SDS011;19657;50.452;30.372;2024-02-16T14:46:35;48.10;;;28.30;;
33287;SDS011;19657;50.452;30.372;2024-02-16T14:49:22;44.60;;;24.30;;
33287;SDS011;19657;50.452;30.372;2024-02-16T14:52:10;48.20;;;27.40;;
33287;SDS011;19657;50.452;30.372;2024-02-16T14:54:57;42.60;;;25.80;;
33287;SDS011;19657;50.452;30.372;2024-02-16T14:57:45;49.90;;;29.80;;
33287;SDS011;19657;50.452;30.372;2024-02-16T15:00:31;44.50;;;27.80;;
33287;SDS011;19657;50.452;30.372;2024-02-16T15:03:19;43.00;;;23.70;;
33287;SDS011;19657;50.452;30.372;2024-02-16T15:06:06;36.60;;;22.80;;
33287;SDS011;19657;50.452;30.372;2024-02-16T15:08:52;40.50;;;24.20;;
33287;SDS011;19657;50.452;30.372;2024-02-16T15:11:39;39.60;;;24.70;;
33287;SDS011;19657;50.452;30.372;2024-02-16T15:14:25;36.70;;;21.90;;
33287;SDS011;19657;50.452;30.372;2024-02-16T15:17:12;33.90;;;22.90;;
33287;SDS011;19657;50.452;30.372;2024-02-16T15:19:58;41.70;;;25.20;;
33287;SDS011;19657;50.452;30.372;2024-02-16T15:22:45;34.90;;;22.70;;
33287;SDS011;19657;50.452;30.372;2024-02-16T15:25:38;32.80;;;22.20;;
33287;SDS011;19657;50.452;30.372;2024-02-16T15:28:24;36.70;;;20.70;;
33287;SDS011;19657;50.452;30.372;2024-02-16T15:31:11;34.30;;;23.20;;
33287;SDS011;19657;50.452;30.372;2024-02-16T15:33:57;36.10;;;21.20;;
33287;SDS011;19657;50.452;30.372;2024-02-16T15:36:45;39.10;;;23.20;;
33287;SDS011;19657;50.452;30.372;2024-02-16T15:39:31;47.20;;;26.40;;
33287;SDS011;19657;50.452;30.372;2024-02-16T15:42:18;35.60;;;23.30;;
33287;SDS011;19657;50.452;30.372;2024-02-16T15:45:05;34.40;;;23.30;;
33287;SDS011;19657;50.452;30.372;2024-02-16T15:47:52;35.30;;;22.70;;
33287;SDS011;19657;50.452;30.372;2024-02-16T15:50:38;33.10;;;22.50;;
33287;SDS011;19657;50.452;30.372;2024-02-16T15:53:25;31.20;;;20.50;;
33287;SDS011;19657;50.452;30.372;2024-02-16T15:56:12;30.90;;;19.80;;
33287;SDS011;19657;50.452;30.372;2024-02-16T15:58:58;27.90;;;18.70;;
33287;SDS011;19657;50.452;30.372;2024-02-16T16:01:47;31.30;;;20.00;;
33287;SDS011;19657;50.452;30.372;2024-02-16T16:04:34;30.00;;;20.10;;
33287;SDS011;19657;50.452;30.372;2024-02-16T16:07:21;34.80;;;22.90;;
33287;SDS011;19657;50.452;30.372;2024-02-16T16:10:07;35.40;;;23.00;;
33287;SDS011;19657;50.452;30.372;2024-02-16T16:12:54;33.30;;;21.80;;
33287;SDS011;19657;50.452;30.372;2024-02-16T16:15:43;33.50;;;21.10;;
33287;SDS011;19657;50.452;30.372;2024-02-16T16:18:30;32.80;;;21.40;;